sensor_id;sensor_type;location;lat;lon;timestamp;P1;durP1;ratioP1;P2;durP2;ratioP2
44181;SDS011;30436;48.888;9.202;2022-08-19T00:00:58;11.65;;;10.50;;
44181;SDS011;30436;48.888;9.202;2022-08-19T00:03:27;10.40;;;9.43;;
44181;SDS011;30436;48.888;9.202;2022-08-19T00:06:06;12.18;;;10.98;;
44181;SDS011;30436;48.888;9.202;2022-08-19T00:08:41;12.50;;;11.20;;
44181;SDS011;30436;48.888;9.202;2022-08-19T00:11:13;12.57;;;11.27;;
44181;SDS011;30436;48.888;9.202;2022-08-19T00:13:44;14.15;;;11.05;;
44181;SDS011;30436;48.888;9.202;2022-08-19T00:16:24;12.57;;;11.23;;
44181;SDS011;30436;48.888;9.202;2022-08-19T00:18:53;12.20;;;10.73;;
44181;SDS011;30436;48.888;9.202;2022-08-19T00:21:20;12.07;;;10.88;;
44181;SDS011;30436;48.888;9.202;2022-08-19T00:23:49;13.85;;;11.52;;
44181;SDS011;30436;48.888;9.202;2022-08-19T00:26:19;13.07;;;11.68;;
44181;SDS011;30436;48.888;9.202;2022-08-19T00:29:02;11.95;;;10.75;;
44181;SDS011;30436;48.888;9.202;2022-08-19T00:31:31;11.70;;;10.60;;
44181;SDS011;30436;48.888;9.202;2022-08-19T00:33:58;12.77;;;11.60;;
44181;SDS011;30436;48.888;9.202;2022-08-19T00:36:24;11.80;;;10.60;;
44181;SDS011;30436;48.888;9.202;2022-08-19T00:38:57;11.95;;;10.77;;
44181;SDS011;30436;48.888;9.202;2022-08-19T00:41:30;12.30;;;11.07;;
44181;SDS011;30436;48.888;9.202;2022-08-19T00:44:08;13.05;;;11.77;;
44181;SDS011;30436;48.888;9.202;2022-08-19T00:46:48;13.15;;;11.85;;
44181;SDS011;30436;48.888;9.202;2022-08-19T00:49:20;12.43;;;11.27;;
44181;SDS011;30436;48.888;9.202;2022-08-19T00:52:00;12.63;;;11.32;;
44181;SDS011;30436;48.888;9.202;2022-08-19T00:54:33;12.10;;;10.90;;
44181;SDS011;30436;48.888;9.202;2022-08-19T00:57:03;12.07;;;10.88;;
44181;SDS011;30436;48.888;9.202;2022-08-19T00:59:55;12.23;;;11.02;;
44181;SDS011;30436;48.888;9.202;2022-08-19T01:02:30;12.25;;;10.93;;
44181;SDS011;30436;48.888;9.202;2022-08-19T01:04:59;12.07;;;10.82;;
44181;SDS011;30436;48.888;9.202;2022-08-19T01:07:27;12.05;;;10.82;;
44181;SDS011;30436;48.888;9.202;2022-08-19T01:09:53;11.82;;;10.70;;
44181;SDS011;30436;48.888;9.202;2022-08-19T01:12:30;12.55;;;11.35;;
44181;SDS011;30436;48.888;9.202;2022-08-19T01:15:02;11.90;;;10.80;;
44181;SDS011;30436;48.888;9.202;2022-08-19T01:17:28;14.15;;;11.55;;
44181;SDS011;30436;48.888;9.202;2022-08-19T01:19:55;13.25;;;10.82;;
44181;SDS011;30436;48.888;9.202;2022-08-19T01:24:53;11.85;;;10.68;;
44181;SDS011;30436;48.888;9.202;2022-08-19T01:27:39;12.65;;;10.80;;
44181;SDS011;30436;48.888;9.202;2022-08-19T01:30:07;12.35;;;10.75;;
44181;SDS011;30436;48.888;9.202;2022-08-19T01:32:34;13.30;;;12.00;;
44181;SDS011;30436;48.888;9.202;2022-08-19T01:35:11;12.65;;;11.32;;
44181;SDS011;30436;48.888;9.202;2022-08-19T01:37:53;12.68;;;11.38;;
44181;SDS011;30436;48.888;9.202;2022-08-19T01:40:27;12.00;;;10.73;;
44181;SDS011;30436;48.888;9.202;2022-08-19T01:43:17;12.43;;;11.15;;
44181;SDS011;30436;48.888;9.202;2022-08-19T01:45:49;13.13;;;11.73;;
44181;SDS011;30436;48.888;9.202;2022-08-19T01:48:16;14.07;;;11.70;;
44181;SDS011;30436;48.888;9.202;2022-08-19T01:50:44;13.70;;;12.05;;
44181;SDS011;30436;48.888;9.202;2022-08-19T01:53:16;13.18;;;11.80;;
44181;SDS011;30436;48.888;9.202;2022-08-19T01:55:42;14.30;;;12.80;;
44181;SDS011;30436;48.888;9.202;2022-08-19T01:58:16;14.30;;;11.82;;
44181;SDS011;30436;48.888;9.202;2022-08-19T02:00:58;15.50;;;12.43;;
44181;SDS011;30436;48.888;9.202;2022-08-19T02:03:57;14.48;;;12.10;;
44181;SDS011;30436;48.888;9.202;2022-08-19T02:06:58;14.00;;;12.27;;
44181;SDS011;30436;48.888;9.202;2022-08-19T02:09:37;16.67;;;13.30;;
44181;SDS011;30436;48.888;9.202;2022-08-19T02:12:25;14.32;;;12.82;;
44181;SDS011;30436;48.888;9.202;2022-08-19T02:14:59;14.80;;;13.20;;
44181;SDS011;30436;48.888;9.202;2022-08-19T02:17:56;14.93;;;13.23;;
44181;SDS011;30436;48.888;9.202;2022-08-19T02:20:22;15.10;;;13.50;;
44181;SDS011;30436;48.888;9.202;2022-08-19T02:23:21;16.02;;;12.85;;
44181;SDS011;30436;48.888;9.202;2022-08-19T02:25:58;15.60;;;13.55;;
44181;SDS011;30436;48.888;9.202;2022-08-19T02:28:29;14.32;;;12.80;;
44181;SDS011;30436;48.888;9.202;2022-08-19T02:31:02;16.38;;;14.18;;
44181;SDS011;30436;48.888;9.202;2022-08-19T02:33:55;16.55;;;14.35;;
44181;SDS011;30436;48.888;9.202;2022-08-19T02:36:29;15.00;;;13.45;;
44181;SDS011;30436;48.888;9.202;2022-08-19T02:38:58;17.27;;;14.73;;
44181;SDS011;30436;48.888;9.202;2022-08-19T02:41:31;15.10;;;13.60;;
44181;SDS011;30436;48.888;9.202;2022-08-19T02:44:03;15.68;;;14.00;;
44181;SDS011;30436;48.888;9.202;2022-08-19T02:46:46;16.30;;;14.65;;
44181;SDS011;30436;48.888;9.202;2022-08-19T02:49:25;17.15;;;13.93;;
44181;SDS011;30436;48.888;9.202;2022-08-19T02:51:57;16.27;;;14.57;;
44181;SDS011;30436;48.888;9.202;2022-08-19T02:54:55;18.48;;;15.13;;
44181;SDS011;30436;48.888;9.202;2022-08-19T02:57:29;16.75;;;14.52;;
44181;SDS011;30436;48.888;9.202;2022-08-19T03:00:03;17.95;;;14.90;;
44181;SDS011;30436;48.888;9.202;2022-08-19T03:02:33;16.85;;;15.10;;
44181;SDS011;30436;48.888;9.202;2022-08-19T03:05:21;19.27;;;14.93;;
44181;SDS011;30436;48.888;9.202;2022-08-19T03:07:57;17.80;;;15.45;;
44181;SDS011;30436;48.888;9.202;2022-08-19T03:10:26;18.75;;;16.02;;
44181;SDS011;30436;48.888;9.202;2022-08-19T03:13:02;18.17;;;16.27;;
44181;SDS011;30436;48.888;9.202;2022-08-19T03:22:25;19.52;;;16.13;;
44181;SDS011;30436;48.888;9.202;2022-08-19T03:26:02;18.25;;;16.20;;
44181;SDS011;30436;48.888;9.202;2022-08-19T03:28:51;18.20;;;14.55;;
44181;SDS011;30436;48.888;9.202;2022-08-19T03:38:49;18.90;;;16.88;;
44181;SDS011;30436;48.888;9.202;2022-08-19T03:47:53;23.15;;;17.10;;
44181;SDS011;30436;48.888;9.202;2022-08-19T03:54:24;20.63;;;17.27;;
44181;SDS011;30436;48.888;9.202;2022-08-19T04:00:49;18.33;;;16.48;;
44181;SDS011;30436;48.888;9.202;2022-08-19T04:03:18;19.50;;;16.60;;
44181;SDS011;30436;48.888;9.202;2022-08-19T04:05:46;20.70;;;16.83;;
44181;SDS011;30436;48.888;9.202;2022-08-19T04:08:12;20.95;;;17.85;;
44181;SDS011;30436;48.888;9.202;2022-08-19T04:10:49;19.63;;;16.60;;
44181;SDS011;30436;48.888;9.202;2022-08-19T04:13:16;18.20;;;16.30;;
44181;SDS011;30436;48.888;9.202;2022-08-19T04:15:44;19.08;;;16.58;;
44181;SDS011;30436;48.888;9.202;2022-08-19T04:18:11;20.17;;;17.13;;
44181;SDS011;30436;48.888;9.202;2022-08-19T04:20:44;21.58;;;17.40;;
44181;SDS011;30436;48.888;9.202;2022-08-19T04:23:14;19.45;;;17.25;;
44181;SDS011;30436;48.888;9.202;2022-08-19T04:25:46;20.52;;;17.45;;
44181;SDS011;30436;48.888;9.202;2022-08-19T04:28:17;20.73;;;16.88;;
44181;SDS011;30436;48.888;9.202;2022-08-19T04:30:52;18.63;;;16.55;;
44181;SDS011;30436;48.888;9.202;2022-08-19T04:33:20;19.52;;;17.45;;
44181;SDS011;30436;48.888;9.202;2022-08-19T04:35:49;18.90;;;16.90;;
44181;SDS011;30436;48.888;9.202;2022-08-19T04:38:16;19.75;;;17.48;;
44181;SDS011;30436;48.888;9.202;2022-08-19T04:40:55;18.83;;;16.92;;
44181;SDS011;30436;48.888;9.202;2022-08-19T04:43:52;19.08;;;17.15;;
44181;SDS011;30436;48.888;9.202;2022-08-19T04:46:41;19.50;;;17.50;;
44181;SDS011;30436;48.888;9.202;2022-08-19T04:50:15;18.95;;;16.92;;
44181;SDS011;30436;48.888;9.202;2022-08-19T04:52:58;19.92;;;17.83;;
44181;SDS011;30436;48.888;9.202;2022-08-19T04:55:38;19.48;;;17.45;;
44181;SDS011;30436;48.888;9.202;2022-08-19T04:58:34;19.65;;;16.90;;
44181;SDS011;30436;48.888;9.202;2022-08-19T05:25:25;20.27;;;17.90;;
44181;SDS011;30436;48.888;9.202;2022-08-19T05:27:59;18.98;;;16.92;;
44181;SDS011;30436;48.888;9.202;2022-08-19T05:30:25;19.77;;;17.10;;
44181;SDS011;30436;48.888;9.202;2022-08-19T05:32:51;20.90;;;17.38;;
44181;SDS011;30436;48.888;9.202;2022-08-19T05:35:17;20.40;;;17.83;;
44181;SDS011;30436;48.888;9.202;2022-08-19T05:37:43;19.92;;;17.77;;
44181;SDS011;30436;48.888;9.202;2022-08-19T05:40:09;20.05;;;17.95;;
44181;SDS011;30436;48.888;9.202;2022-08-19T05:42:35;20.30;;;17.35;;
44181;SDS011;30436;48.888;9.202;2022-08-19T05:45:01;20.17;;;17.80;;
44181;SDS011;30436;48.888;9.202;2022-08-19T05:47:27;19.48;;;17.50;;
44181;SDS011;30436;48.888;9.202;2022-08-19T05:49:53;18.65;;;16.83;;
44181;SDS011;30436;48.888;9.202;2022-08-19T05:52:19;18.80;;;16.90;;
44181;SDS011;30436;48.888;9.202;2022-08-19T05:54:45;18.80;;;16.88;;
44181;SDS011;30436;48.888;9.202;2022-08-19T05:57:12;19.55;;;17.58;;
44181;SDS011;30436;48.888;9.202;2022-08-19T05:59:38;20.10;;;17.70;;
44181;SDS011;30436;48.888;9.202;2022-08-19T06:02:04;18.92;;;16.92;;
44181;SDS011;30436;48.888;9.202;2022-08-19T06:04:31;20.25;;;18.13;;
44181;SDS011;30436;48.888;9.202;2022-08-19T06:06:57;19.00;;;17.00;;
44181;SDS011;30436;48.888;9.202;2022-08-19T06:09:23;22.67;;;17.98;;
44181;SDS011;30436;48.888;9.202;2022-08-19T06:11:50;21.30;;;17.98;;
44181;SDS011;30436;48.888;9.202;2022-08-19T06:14:23;21.08;;;16.77;;
44181;SDS011;30436;48.888;9.202;2022-08-19T06:16:55;19.67;;;17.58;;
44181;SDS011;30436;48.888;9.202;2022-08-19T06:19:22;19.20;;;17.17;;
44181;SDS011;30436;48.888;9.202;2022-08-19T06:21:50;21.63;;;18.50;;
44181;SDS011;30436;48.888;9.202;2022-08-19T06:24:21;21.48;;;18.08;;
44181;SDS011;30436;48.888;9.202;2022-08-19T06:26:49;22.17;;;16.80;;
44181;SDS011;30436;48.888;9.202;2022-08-19T06:29:17;19.10;;;16.98;;
44181;SDS011;30436;48.888;9.202;2022-08-19T06:31:50;19.92;;;17.58;;
44181;SDS011;30436;48.888;9.202;2022-08-19T06:34:18;19.75;;;17.60;;
44181;SDS011;30436;48.888;9.202;2022-08-19T06:36:46;17.88;;;16.02;;
44181;SDS011;30436;48.888;9.202;2022-08-19T06:39:15;18.92;;;17.05;;
44181;SDS011;30436;48.888;9.202;2022-08-19T06:41:45;20.17;;;18.10;;
44181;SDS011;30436;48.888;9.202;2022-08-19T06:44:16;21.90;;;17.92;;
44181;SDS011;30436;48.888;9.202;2022-08-19T06:46:46;20.02;;;17.35;;
44181;SDS011;30436;48.888;9.202;2022-08-19T06:49:13;19.58;;;17.48;;
44181;SDS011;30436;48.888;9.202;2022-08-19T06:51:44;19.45;;;17.58;;
44181;SDS011;30436;48.888;9.202;2022-08-19T06:54:14;23.05;;;18.83;;
44181;SDS011;30436;48.888;9.202;2022-08-19T06:56:41;21.05;;;18.77;;
44181;SDS011;30436;48.888;9.202;2022-08-19T06:59:12;19.10;;;17.15;;
44181;SDS011;30436;48.888;9.202;2022-08-19T07:01:43;21.73;;;18.90;;
44181;SDS011;30436;48.888;9.202;2022-08-19T07:04:13;20.20;;;18.20;;
44181;SDS011;30436;48.888;9.202;2022-08-19T07:06:40;20.23;;;18.13;;
44181;SDS011;30436;48.888;9.202;2022-08-19T07:09:07;19.60;;;17.25;;
44181;SDS011;30436;48.888;9.202;2022-08-19T07:11:34;20.15;;;18.05;;
44181;SDS011;30436;48.888;9.202;2022-08-19T07:14:00;21.08;;;18.85;;
44181;SDS011;30436;48.888;9.202;2022-08-19T07:16:27;19.65;;;17.52;;
44181;SDS011;30436;48.888;9.202;2022-08-19T07:18:53;20.50;;;18.33;;
44181;SDS011;30436;48.888;9.202;2022-08-19T07:21:22;18.30;;;16.40;;
44181;SDS011;30436;48.888;9.202;2022-08-19T07:23:53;19.50;;;17.25;;
44181;SDS011;30436;48.888;9.202;2022-08-19T07:26:30;19.20;;;17.15;;
44181;SDS011;30436;48.888;9.202;2022-08-19T07:29:00;18.85;;;16.85;;
44181;SDS011;30436;48.888;9.202;2022-08-19T07:31:27;17.40;;;15.18;;
44181;SDS011;30436;48.888;9.202;2022-08-19T07:33:53;18.00;;;16.10;;
44181;SDS011;30436;48.888;9.202;2022-08-19T07:36:22;17.30;;;14.90;;
44181;SDS011;30436;48.888;9.202;2022-08-19T07:38:51;18.83;;;16.05;;
44181;SDS011;30436;48.888;9.202;2022-08-19T07:41:21;17.52;;;15.68;;
44181;SDS011;30436;48.888;9.202;2022-08-19T07:43:49;19.13;;;16.17;;
44181;SDS011;30436;48.888;9.202;2022-08-19T07:46:16;18.05;;;15.85;;
44181;SDS011;30436;48.888;9.202;2022-08-19T07:48:46;16.88;;;15.27;;
44181;SDS011;30436;48.888;9.202;2022-08-19T07:51:15;16.85;;;15.07;;
44181;SDS011;30436;48.888;9.202;2022-08-19T07:53:42;19.80;;;15.98;;
44181;SDS011;30436;48.888;9.202;2022-08-19T07:56:10;18.48;;;16.58;;
44181;SDS011;30436;48.888;9.202;2022-08-19T07:58:38;17.48;;;15.27;;
44181;SDS011;30436;48.888;9.202;2022-08-19T08:01:07;16.50;;;14.88;;
44181;SDS011;30436;48.888;9.202;2022-08-19T08:03:35;22.20;;;14.20;;
44181;SDS011;30436;48.888;9.202;2022-08-19T08:06:20;17.95;;;14.55;;
44181;SDS011;30436;48.888;9.202;2022-08-19T08:09:04;16.27;;;14.25;;
44181;SDS011;30436;48.888;9.202;2022-08-19T08:12:11;17.65;;;13.93;;
44181;SDS011;30436;48.888;9.202;2022-08-19T08:14:45;15.75;;;14.05;;
44181;SDS011;30436;48.888;9.202;2022-08-19T08:17:14;14.93;;;13.40;;
44181;SDS011;30436;48.888;9.202;2022-08-19T08:19:41;14.05;;;12.70;;
44181;SDS011;30436;48.888;9.202;2022-08-19T08:22:08;15.10;;;13.55;;
44181;SDS011;30436;48.888;9.202;2022-08-19T08:24:54;15.95;;;14.18;;
44181;SDS011;30436;48.888;9.202;2022-08-19T08:27:23;15.45;;;13.85;;
44181;SDS011;30436;48.888;9.202;2022-08-19T08:29:49;14.93;;;13.33;;
44181;SDS011;30436;48.888;9.202;2022-08-19T08:32:15;16.60;;;13.80;;
44181;SDS011;30436;48.888;9.202;2022-08-19T08:34:41;15.73;;;13.13;;
44181;SDS011;30436;48.888;9.202;2022-08-19T08:37:07;14.98;;;13.38;;
44181;SDS011;30436;48.888;9.202;2022-08-19T08:39:33;16.80;;;13.05;;
44181;SDS011;30436;48.888;9.202;2022-08-19T08:42:12;17.02;;;13.50;;
44181;SDS011;30436;48.888;9.202;2022-08-19T08:44:58;17.20;;;13.75;;
44181;SDS011;30436;48.888;9.202;2022-08-19T08:47:27;14.73;;;13.20;;
44181;SDS011;30436;48.888;9.202;2022-08-19T08:50:15;14.75;;;13.25;;
44181;SDS011;30436;48.888;9.202;2022-08-19T08:52:55;14.40;;;12.57;;
44181;SDS011;30436;48.888;9.202;2022-08-19T08:55:26;14.50;;;13.02;;
44181;SDS011;30436;48.888;9.202;2022-08-19T08:58:13;17.13;;;12.48;;
44181;SDS011;30436;48.888;9.202;2022-08-19T09:00:46;16.13;;;13.68;;
44181;SDS011;30436;48.888;9.202;2022-08-19T09:03:17;14.18;;;12.60;;
44181;SDS011;30436;48.888;9.202;2022-08-19T09:10:58;14.35;;;12.65;;
44181;SDS011;30436;48.888;9.202;2022-08-19T09:16:29;14.13;;;12.68;;
44181;SDS011;30436;48.888;9.202;2022-08-19T09:18:53;13.82;;;12.20;;
44181;SDS011;30436;48.888;9.202;2022-08-19T09:21:23;14.45;;;12.60;;
44181;SDS011;30436;48.888;9.202;2022-08-19T09:23:50;15.63;;;12.60;;
44181;SDS011;30436;48.888;9.202;2022-08-19T09:26:17;14.52;;;12.80;;
44181;SDS011;30436;48.888;9.202;2022-08-19T09:28:46;13.70;;;12.30;;
44181;SDS011;30436;48.888;9.202;2022-08-19T09:31:13;13.95;;;12.45;;
44181;SDS011;30436;48.888;9.202;2022-08-19T09:33:44;14.20;;;11.55;;
44181;SDS011;30436;48.888;9.202;2022-08-19T09:36:12;14.77;;;11.70;;
44181;SDS011;30436;48.888;9.202;2022-08-19T09:38:40;14.52;;;11.55;;
44181;SDS011;30436;48.888;9.202;2022-08-19T09:41:07;16.95;;;11.70;;
44181;SDS011;30436;48.888;9.202;2022-08-19T09:43:38;12.95;;;11.45;;
44181;SDS011;30436;48.888;9.202;2022-08-19T09:46:06;14.95;;;11.38;;
44181;SDS011;30436;48.888;9.202;2022-08-19T09:48:37;13.88;;;11.30;;
44181;SDS011;30436;48.888;9.202;2022-08-19T09:51:09;12.27;;;10.55;;
44181;SDS011;30436;48.888;9.202;2022-08-19T09:53:42;12.23;;;10.73;;
44181;SDS011;30436;48.888;9.202;2022-08-19T09:56:11;13.13;;;11.07;;
44181;SDS011;30436;48.888;9.202;2022-08-19T09:58:38;11.80;;;10.60;;
44181;SDS011;30436;48.888;9.202;2022-08-19T10:01:06;13.15;;;10.50;;
44181;SDS011;30436;48.888;9.202;2022-08-19T10:03:33;12.73;;;10.95;;
44181;SDS011;30436;48.888;9.202;2022-08-19T10:06:01;14.65;;;11.50;;
44181;SDS011;30436;48.888;9.202;2022-08-19T10:08:30;14.13;;;10.45;;
44181;SDS011;30436;48.888;9.202;2022-08-19T10:10:58;11.75;;;10.48;;
44181;SDS011;30436;48.888;9.202;2022-08-19T10:13:26;12.32;;;11.02;;
44181;SDS011;30436;48.888;9.202;2022-08-19T10:15:54;11.75;;;10.55;;
44181;SDS011;30436;48.888;9.202;2022-08-19T10:18:27;12.32;;;10.40;;
44181;SDS011;30436;48.888;9.202;2022-08-19T10:21:01;11.52;;;10.38;;
44181;SDS011;30436;48.888;9.202;2022-08-19T10:23:48;11.60;;;10.18;;
44181;SDS011;30436;48.888;9.202;2022-08-19T10:26:19;14.82;;;10.80;;
44181;SDS011;30436;48.888;9.202;2022-08-19T10:28:52;12.65;;;10.13;;
44181;SDS011;30436;48.888;9.202;2022-08-19T10:31:19;11.13;;;9.73;;
44181;SDS011;30436;48.888;9.202;2022-08-19T10:33:50;14.23;;;9.60;;
44181;SDS011;30436;48.888;9.202;2022-08-19T10:36:22;10.13;;;9.13;;
44181;SDS011;30436;48.888;9.202;2022-08-19T10:39:02;10.88;;;9.57;;
44181;SDS011;30436;48.888;9.202;2022-08-19T10:41:31;12.52;;;9.18;;
44181;SDS011;30436;48.888;9.202;2022-08-19T10:44:01;11.25;;;8.25;;
44181;SDS011;30436;48.888;9.202;2022-08-19T10:46:28;9.48;;;8.05;;
44181;SDS011;30436;48.888;9.202;2022-08-19T10:48:58;10.75;;;8.55;;
44181;SDS011;30436;48.888;9.202;2022-08-19T10:51:26;9.07;;;8.18;;
44181;SDS011;30436;48.888;9.202;2022-08-19T10:54:11;9.68;;;7.35;;
44181;SDS011;30436;48.888;9.202;2022-08-19T10:56:40;7.32;;;6.57;;
44181;SDS011;30436;48.888;9.202;2022-08-19T10:59:21;7.53;;;6.05;;
44181;SDS011;30436;48.888;9.202;2022-08-19T11:01:49;7.75;;;6.03;;
44181;SDS011;30436;48.888;9.202;2022-08-19T11:04:16;6.38;;;5.70;;
44181;SDS011;30436;48.888;9.202;2022-08-19T11:06:44;6.68;;;6.00;;
44181;SDS011;30436;48.888;9.202;2022-08-19T11:09:13;6.22;;;5.55;;
44181;SDS011;30436;48.888;9.202;2022-08-19T11:11:44;7.22;;;6.10;;
44181;SDS011;30436;48.888;9.202;2022-08-19T11:14:11;7.50;;;6.28;;
44181;SDS011;30436;48.888;9.202;2022-08-19T11:16:39;10.00;;;6.72;;
44181;SDS011;30436;48.888;9.202;2022-08-19T11:19:07;6.93;;;5.95;;
44181;SDS011;30436;48.888;9.202;2022-08-19T13:35:10;7.25;;;5.93;;
44181;SDS011;30436;48.888;9.202;2022-08-19T13:37:40;7.13;;;6.05;;
44181;SDS011;30436;48.888;9.202;2022-08-19T13:40:18;8.15;;;5.97;;
44181;SDS011;30436;48.888;9.202;2022-08-19T13:50:40;11.40;;;9.48;;
44181;SDS011;30436;48.888;9.202;2022-08-19T15:33:16;21.00;;;18.75;;
44181;SDS011;30436;48.888;9.202;2022-08-19T15:35:45;21.77;;;19.48;;
44181;SDS011;30436;48.888;9.202;2022-08-19T15:46:29;19.98;;;17.85;;
44181;SDS011;30436;48.888;9.202;2022-08-19T16:01:10;20.88;;;18.88;;
44181;SDS011;30436;48.888;9.202;2022-08-19T16:04:40;20.38;;;18.00;;
44181;SDS011;30436;48.888;9.202;2022-08-19T16:07:50;21.02;;;18.80;;
44181;SDS011;30436;48.888;9.202;2022-08-19T16:11:18;21.15;;;18.88;;
44181;SDS011;30436;48.888;9.202;2022-08-19T16:13:49;21.05;;;18.92;;
44181;SDS011;30436;48.888;9.202;2022-08-19T16:16:31;25.27;;;22.40;;
44181;SDS011;30436;48.888;9.202;2022-08-19T16:19:06;24.08;;;21.58;;
44181;SDS011;30436;48.888;9.202;2022-08-19T16:21:34;19.67;;;17.58;;
44181;SDS011;30436;48.888;9.202;2022-08-19T16:24:01;24.05;;;19.52;;
44181;SDS011;30436;48.888;9.202;2022-08-19T16:26:30;20.38;;;17.42;;
44181;SDS011;30436;48.888;9.202;2022-08-19T16:28:56;27.90;;;21.97;;
44181;SDS011;30436;48.888;9.202;2022-08-19T16:31:23;16.73;;;14.98;;
44181;SDS011;30436;48.888;9.202;2022-08-19T16:33:49;25.77;;;20.98;;
44181;SDS011;30436;48.888;9.202;2022-08-19T16:36:15;17.00;;;15.30;;
44181;SDS011;30436;48.888;9.202;2022-08-19T16:38:41;17.15;;;14.75;;
44181;SDS011;30436;48.888;9.202;2022-08-19T16:41:10;18.17;;;14.70;;
44181;SDS011;30436;48.888;9.202;2022-08-19T16:43:38;19.67;;;14.48;;
44181;SDS011;30436;48.888;9.202;2022-08-19T16:46:05;18.95;;;14.70;;
44181;SDS011;30436;48.888;9.202;2022-08-19T16:48:31;17.05;;;14.25;;
44181;SDS011;30436;48.888;9.202;2022-08-19T16:51:00;16.35;;;14.52;;
44181;SDS011;30436;48.888;9.202;2022-08-19T16:53:33;17.40;;;15.15;;
44181;SDS011;30436;48.888;9.202;2022-08-19T16:56:00;17.60;;;15.68;;
44181;SDS011;30436;48.888;9.202;2022-08-19T16:58:27;17.67;;;15.43;;
44181;SDS011;30436;48.888;9.202;2022-08-19T17:00:56;17.63;;;15.80;;
44181;SDS011;30436;48.888;9.202;2022-08-19T17:03:22;17.90;;;15.97;;
44181;SDS011;30436;48.888;9.202;2022-08-19T17:05:50;16.10;;;14.50;;
44181;SDS011;30436;48.888;9.202;2022-08-19T17:08:21;18.83;;;15.95;;
44181;SDS011;30436;48.888;9.202;2022-08-19T17:10:50;17.65;;;15.88;;
44181;SDS011;30436;48.888;9.202;2022-08-19T17:13:21;17.13;;;15.43;;
44181;SDS011;30436;48.888;9.202;2022-08-19T17:15:51;16.95;;;15.15;;
44181;SDS011;30436;48.888;9.202;2022-08-19T17:18:18;19.10;;;16.48;;
44181;SDS011;30436;48.888;9.202;2022-08-19T17:20:44;18.92;;;16.95;;
44181;SDS011;30436;48.888;9.202;2022-08-19T17:23:11;18.08;;;15.55;;
44181;SDS011;30436;48.888;9.202;2022-08-19T17:25:38;18.08;;;15.70;;
44181;SDS011;30436;48.888;9.202;2022-08-19T17:28:08;18.50;;;16.70;;
44181;SDS011;30436;48.888;9.202;2022-08-19T17:30:36;18.20;;;16.30;;
44181;SDS011;30436;48.888;9.202;2022-08-19T17:33:02;17.90;;;15.95;;
44181;SDS011;30436;48.888;9.202;2022-08-19T17:35:29;18.02;;;16.15;;
44181;SDS011;30436;48.888;9.202;2022-08-19T17:37:56;17.10;;;15.30;;
44181;SDS011;30436;48.888;9.202;2022-08-19T17:40:27;17.23;;;15.53;;
44181;SDS011;30436;48.888;9.202;2022-08-19T17:42:54;16.65;;;14.63;;
44181;SDS011;30436;48.888;9.202;2022-08-19T17:45:20;16.77;;;15.03;;
44181;SDS011;30436;48.888;9.202;2022-08-19T17:47:46;16.80;;;15.18;;
44181;SDS011;30436;48.888;9.202;2022-08-19T17:50:12;16.45;;;14.77;;
44181;SDS011;30436;48.888;9.202;2022-08-19T17:52:38;15.70;;;14.13;;
44181;SDS011;30436;48.888;9.202;2022-08-19T17:55:04;16.63;;;14.93;;
44181;SDS011;30436;48.888;9.202;2022-08-19T17:57:31;16.50;;;14.83;;
44181;SDS011;30436;48.888;9.202;2022-08-19T17:59:57;17.27;;;15.57;;
44181;SDS011;30436;48.888;9.202;2022-08-19T18:02:23;15.95;;;14.32;;
44181;SDS011;30436;48.888;9.202;2022-08-19T18:04:49;17.02;;;15.30;;
44181;SDS011;30436;48.888;9.202;2022-08-19T18:07:15;17.13;;;15.43;;
44181;SDS011;30436;48.888;9.202;2022-08-19T18:09:45;18.95;;;15.32;;
44181;SDS011;30436;48.888;9.202;2022-08-19T18:12:19;19.05;;;14.98;;
44181;SDS011;30436;48.888;9.202;2022-08-19T18:14:46;17.40;;;15.20;;
44181;SDS011;30436;48.888;9.202;2022-08-19T18:17:13;17.30;;;15.57;;
44181;SDS011;30436;48.888;9.202;2022-08-19T18:19:41;17.33;;;15.57;;
44181;SDS011;30436;48.888;9.202;2022-08-19T18:22:22;19.67;;;15.40;;
44181;SDS011;30436;48.888;9.202;2022-08-19T18:24:54;18.80;;;15.80;;
44181;SDS011;30436;48.888;9.202;2022-08-19T18:27:21;17.35;;;15.45;;
44181;SDS011;30436;48.888;9.202;2022-08-19T18:29:47;17.38;;;15.57;;
44181;SDS011;30436;48.888;9.202;2022-08-19T18:32:14;17.83;;;15.93;;
44181;SDS011;30436;48.888;9.202;2022-08-19T18:34:41;17.50;;;15.70;;
44181;SDS011;30436;48.888;9.202;2022-08-19T18:37:07;17.75;;;15.18;;
44181;SDS011;30436;48.888;9.202;2022-08-19T18:39:33;17.38;;;15.68;;
44181;SDS011;30436;48.888;9.202;2022-08-19T18:42:18;16.00;;;14.30;;
44181;SDS011;30436;48.888;9.202;2022-08-19T18:45:03;17.58;;;15.80;;
44181;SDS011;30436;48.888;9.202;2022-08-19T18:47:48;16.27;;;14.57;;
44181;SDS011;30436;48.888;9.202;2022-08-19T18:50:33;18.40;;;16.42;;
44181;SDS011;30436;48.888;9.202;2022-08-19T18:52:58;17.65;;;15.77;;
44181;SDS011;30436;48.888;9.202;2022-08-19T18:55:25;17.83;;;15.38;;
44181;SDS011;30436;48.888;9.202;2022-08-19T18:57:53;16.35;;;14.65;;
44181;SDS011;30436;48.888;9.202;2022-08-19T19:00:19;15.80;;;14.27;;
44181;SDS011;30436;48.888;9.202;2022-08-19T19:02:45;16.73;;;14.90;;
44181;SDS011;30436;48.888;9.202;2022-08-19T19:05:12;17.00;;;14.60;;
44181;SDS011;30436;48.888;9.202;2022-08-19T19:07:39;17.00;;;15.20;;
44181;SDS011;30436;48.888;9.202;2022-08-19T19:10:05;18.10;;;16.23;;
44181;SDS011;30436;48.888;9.202;2022-08-19T19:12:35;17.20;;;15.13;;
44181;SDS011;30436;48.888;9.202;2022-08-19T19:15:05;17.63;;;14.63;;
44181;SDS011;30436;48.888;9.202;2022-08-19T19:17:30;15.53;;;13.93;;
44181;SDS011;30436;48.888;9.202;2022-08-19T19:19:56;16.00;;;14.40;;
44181;SDS011;30436;48.888;9.202;2022-08-19T19:22:23;16.43;;;14.80;;
44181;SDS011;30436;48.888;9.202;2022-08-19T19:24:50;16.43;;;14.60;;
44181;SDS011;30436;48.888;9.202;2022-08-19T19:27:18;17.13;;;15.10;;
44181;SDS011;30436;48.888;9.202;2022-08-19T19:29:47;15.15;;;13.60;;
44181;SDS011;30436;48.888;9.202;2022-08-19T19:32:16;17.63;;;14.63;;
44181;SDS011;30436;48.888;9.202;2022-08-19T19:34:53;16.40;;;14.40;;
44181;SDS011;30436;48.888;9.202;2022-08-19T19:37:20;15.80;;;14.10;;
44181;SDS011;30436;48.888;9.202;2022-08-19T19:39:46;15.52;;;13.65;;
44181;SDS011;30436;48.888;9.202;2022-08-19T19:42:14;15.65;;;14.05;;
44181;SDS011;30436;48.888;9.202;2022-08-19T19:44:43;15.80;;;14.10;;
44181;SDS011;30436;48.888;9.202;2022-08-19T19:47:12;15.40;;;13.87;;
44181;SDS011;30436;48.888;9.202;2022-08-19T19:49:39;15.10;;;13.67;;
44181;SDS011;30436;48.888;9.202;2022-08-19T19:52:06;15.83;;;14.00;;
44181;SDS011;30436;48.888;9.202;2022-08-19T19:54:32;15.07;;;13.27;;
44181;SDS011;30436;48.888;9.202;2022-08-19T19:56:58;16.47;;;14.87;;
44181;SDS011;30436;48.888;9.202;2022-08-19T19:59:24;15.57;;;14.07;;
44181;SDS011;30436;48.888;9.202;2022-08-19T20:01:50;14.55;;;13.05;;
44181;SDS011;30436;48.888;9.202;2022-08-19T20:04:16;14.57;;;13.07;;
44181;SDS011;30436;48.888;9.202;2022-08-19T20:06:43;14.53;;;13.03;;
44181;SDS011;30436;48.888;9.202;2022-08-19T20:09:10;14.32;;;12.82;;
44181;SDS011;30436;48.888;9.202;2022-08-19T20:11:43;14.40;;;12.93;;
44181;SDS011;30436;48.888;9.202;2022-08-19T20:17:03;14.67;;;13.17;;
44181;SDS011;30436;48.888;9.202;2022-08-19T20:19:30;13.97;;;12.57;;